Hawesville, Kentucky
Current Conditions -  °F | °C
As of 5:56 PM on Sunday 21 Dec 2014 (Local Time) from KOWB Reporting Station
Clear Clear  
Wind Chill:   Ceiling: Unl
Heat Index:   Visibility: 10mi
Dew Point: -2°   Wind: 5mph
Humidity: 63%   Direction: NA
Pressure: 30.11"   Gusts: NA
Location:  37.9°N, 86.75°W
Report Text: KOWB 212356Z VRB04KT 10SM CLR 04/M02 A3011 RMK AO2 55004 T00441022 10077 20044 SLP198
Loading
Personal Weather Stations






























Interactive Weather Map New forecast layout! Learn more

10-Day Weather Forecast

Advertisements
Track Severe Weather on mobile